Sudbury Airport
CYSB : now visible

Airfield :











YOU CAN JOIN US ON...

 
LOGIN :

Register | Disclaimer

   EN    FR    IT 

 









Legend :    VFR   Marginal VFR   IFR   Intensive IFR   Very Intensive IFR
Visi :
Ceiling :
>= 8 km
>= 3000ft
5 to 8 km
1000 to 3000 ft
1500m to 5 km
500 to 1000 ft
800 to 1500m
200 to 500 ft
< 800m
< 200 ft
Symbols :   Thunderstorms  Fog  Heavy snow  Heavy precipitations  Wind > 20 kt






- Airport Elevation : 1141 ft
- IATA code : YSB


CYSB - Sudbury

CURRENT METAR :
  • 050000Z 25004KT 20SM -RA SCT030 OVC060 06/05 A2996 RMK SC3SC5 -RA INTMT SLP159

EXPIRED METARs :
  • 042300Z 23004KT 20SM -RA SCT030 OVC060 07/04 A2996 RMK SC3SC5 SLP159
  • 042208Z 24003KT 20SM -RA BKN030 OVC100 08/03 A2995 RMK SC5AC3 SLP157

TAF TAF CYSB
Valid from the 04 at 20:00 until the 05 at 08:00 UTC


041942Z 0420/0508 22007KT P6SM BKN030 BKN100
FM042100 23008KT P6SM BKN030 OVC080
TEMPO 0421/0424 6SM -SHRA BR OVC020
FM050000 27008KT P6SM SCT006 OVC020
TEMPO 0500/0505 4SM -RA -DZ BR BKN006 OVC020
PROB30 0500/0505 2SM BR OVC003
FM050500 34008KT 4SM -DZ BR OVC008
TEMPO 0505/0507 P6SM NSW OVC012
PROB30 0506/0507 5SM -FZDZ BR OVC006
FM050700 34010KT 5SM -SN OVC012
TEMPO 0507/0508 P6SM NSW RMK NXT FCST BY 050200Z



MET'MAP, your aeronautical weather chart ! - Copyright ORBIFLY December 2007 - Disclaimer

ORBIFLY MET'MAP TEAM :

Programming & Development : Alexandra Zaïnal
Concept & original design : Baudouin d'Aumeries
Assistance for programming : Marc-Olivier Méhu
Technical & hardware support : Manuel Goepfert

Contact : metmap@orbifly.com




SOURCES & CREDITS :

   NOAA       Earth
Advisory